Time;durP1;ratioP1;P1;durP2;ratioP2;P2;SDS_P1;SDS_P2;PMS_P1;PMS_P2;Temp;Humidity;BMP_temperature;BMP_pressure;BME280_temperature;BME280_humidity;BME280_pressure;Samples;Min_cycle;Max_cycle;Signal;HPM_P1;HPM_P2
2020/12/22 00:00:27;;;;;;;2.57;1.70;;;;;13.30;100370.00;;;;10504407;28;20246;-76
2020/12/22 00:05:28;;;;;;;3.43;1.70;;;;;13.20;100366.00;;;;10520827;28;20188;-77
2020/12/22 00:10:29;;;;;;;2.57;2.00;;;;;13.10;100365.00;;;;10505022;28;20192;-77
2020/12/22 00:15:31;;;;;;;3.73;2.10;;;;;13.10;100365.00;;;;10488503;28;20213;-77
2020/12/22 00:20:40;;;;;;;3.60;2.10;;;;;13.00;100369.00;;;;10521542;28;20188;-76
2020/12/22 00:25:44;;;;;;;2.93;1.80;;;;;13.00;100364.00;;;;10486983;28;20220;-76
2020/12/22 00:30:45;;;;;;;5.03;2.00;;;;;13.00;100374.00;;;;10503191;28;20189;-76
2020/12/22 00:35:47;;;;;;;2.13;1.57;;;;;13.00;100363.00;;;;10520459;28;20295;-76
2020/12/22 00:40:48;;;;;;;2.43;1.40;;;;;13.00;100351.00;;;;10503210;28;20946;-76
2020/12/22 00:45:50;;;;;;;3.80;1.40;;;;;13.00;100371.00;;;;10504136;28;20216;-76
2020/12/22 00:51:02;;;;;;;1.50;1.10;;;;;13.00;100358.00;;;;10503473;28;20611;-76
2020/12/22 00:56:04;;;;;;;3.17;1.30;;;;;13.00;100359.00;;;;10510944;28;20709;-76
2020/12/22 01:01:10;;;;;;;3.67;1.57;;;;;13.00;100368.00;;;;10527721;28;20199;-76
2020/12/22 01:06:13;;;;;;;3.37;1.20;;;;;12.90;100358.00;;;;10527425;28;20239;-76
2020/12/22 01:11:14;;;;;;;6.00;1.60;;;;;12.90;100365.00;;;;10528021;28;20189;-76
2020/12/22 01:16:19;;;;;;;2.07;1.30;;;;;12.90;100355.00;;;;10452327;28;20580;-76
2020/12/22 01:21:21;;;;;;;3.90;1.20;;;;;12.90;100359.00;;;;10479071;28;20617;-76
2020/12/22 01:26:24;;;;;;;4.17;1.47;;;;;12.90;100366.00;;;;10484948;28;20600;-76
2020/12/22 01:31:30;;;;;;;3.23;1.30;;;;;12.90;100375.00;;;;10468415;28;20220;-76
2020/12/22 01:36:32;;;;;;;4.77;1.20;;;;;12.90;100364.00;;;;10451486;28;20252;-76
2020/12/22 01:41:35;;;;;;;3.83;1.20;;;;;12.90;100371.00;;;;10501617;28;20190;-76
2020/12/22 01:46:49;;;;;;;2.60;1.17;;;;;13.00;100382.00;;;;10509876;28;20259;-76
2020/12/22 01:51:53;;;;;;;2.70;1.40;;;;;13.00;100388.00;;;;10509264;28;20238;-76
2020/12/22 01:56:55;;;;;;;3.37;1.27;;;;;13.00;100391.00;;;;10525593;28;20757;-76
2020/12/22 02:01:56;;;;;;;3.30;1.30;;;;;13.00;100388.00;;;;10525284;28;20184;-77
2020/12/22 02:06:58;;;;;;;3.50;1.23;;;;;13.00;100405.00;;;;10508567;28;20258;-76
2020/12/22 02:12:01;;;;;;;1.93;1.20;;;;;13.00;100403.00;;;;10491638;28;20548;-76
2020/12/22 02:17:03;;;;;;;2.20;1.13;;;;;13.00;100417.00;;;;10491452;28;20217;-76
2020/12/22 02:22:05;;;;;;;2.43;1.40;;;;;12.90;100423.00;;;;10524941;28;20180;-76
2020/12/22 02:27:06;;;;;;;1.90;1.40;;;;;12.90;100420.00;;;;10507756;28;20209;-76
2020/12/22 02:32:07;;;;;;;3.33;1.30;;;;;13.00;100430.00;;;;10508074;28;20240;-77
2020/12/22 02:37:09;;;;;;;2.87;1.80;;;;;12.90;100420.00;;;;10507277;28;20205;-76
2020/12/22 02:42:10;;;;;;;2.37;1.33;;;;;12.90;100424.00;;;;10524418;28;20291;-76
2020/12/22 02:47:14;;;;;;;1.53;1.03;;;;;12.90;100430.00;;;;10506416;28;20552;-76
2020/12/22 02:52:15;;;;;;;1.60;1.03;;;;;12.90;100436.00;;;;10523580;28;20634;-76
2020/12/22 02:57:18;;;;;;;1.63;1.30;;;;;12.90;100436.00;;;;10523257;28;20213;-76
2020/12/22 03:02:19;;;;;;;1.93;0.90;;;;;12.90;100435.00;;;;10523255;28;20220;-76
2020/12/22 03:07:21;;;;;;;1.90;1.00;;;;;12.90;100435.00;;;;10522447;28;20220;-76
2020/12/22 03:12:22;;;;;;;1.00;0.90;;;;;12.90;100442.00;;;;10523275;28;20193;-76
2020/12/22 03:17:23;;;;;;;1.13;1.13;;;;;12.90;100437.00;;;;10505056;28;20209;-76
2020/12/22 03:22:38;;;;;;;1.33;1.00;;;;;13.00;100440.00;;;;10506906;28;20193;-76
2020/12/22 03:27:40;;;;;;;1.00;1.00;;;;;13.00;100459.00;;;;10505226;28;20185;-76
2020/12/22 03:32:42;;;;;;;4.57;1.30;;;;;13.00;100448.00;;;;10522378;28;20199;-76
2020/12/22 03:37:44;;;;;;;1.53;1.33;;;;;13.00;100458.00;;;;10521491;28;20232;-76
2020/12/22 03:42:45;;;;;;;1.67;1.00;;;;;13.00;100448.00;;;;10504447;28;20222;-76
2020/12/22 03:47:46;;;;;;;2.47;1.20;;;;;13.00;100450.00;;;;10488062;28;20196;-76
2020/12/22 03:53:05;;;;;;;1.60;1.33;;;;;13.00;100469.00;;;;10522107;28;20274;-76
2020/12/22 03:58:06;;;;;;;2.33;1.20;;;;;13.00;100472.00;;;;10521523;28;20254;-77
2020/12/22 04:03:07;;;;;;;1.33;0.90;;;;;13.00;100476.00;;;;10539439;28;20216;-77
2020/12/22 04:08:09;;;;;;;2.40;1.20;;;;;13.00;100476.00;;;;10487934;28;20655;-77
2020/12/22 04:13:10;;;;;;;2.13;1.10;;;;;13.00;100478.00;;;;10504815;28;20200;-77
2020/12/22 04:18:12;;;;;;;3.67;1.20;;;;;13.00;100470.00;;;;10505043;28;20745;-77
2020/12/22 04:23:14;;;;;;;2.77;1.10;;;;;13.00;100471.00;;;;10488893;28;20282;-76
2020/12/22 04:28:16;;;;;;;0.70;0.70;;;;;13.00;100467.00;;;;10528110;28;20220;-77
2020/12/22 04:33:19;;;;;;;1.00;0.90;;;;;13.00;100472.00;;;;10513557;28;20192;-76
2020/12/22 04:38:21;;;;;;;1.00;0.90;;;;;13.00;100466.00;;;;10512560;28;20211;-77
2020/12/22 04:43:22;;;;;;;2.87;1.30;;;;;13.00;100478.00;;;;10511988;28;20220;-77
2020/12/22 04:48:26;;;;;;;1.33;1.20;;;;;13.10;100490.00;;;;10528575;28;20189;-77
2020/12/22 04:53:35;;;;;;;1.60;1.10;;;;;13.00;100485.00;;;;10496254;28;20201;-77
2020/12/22 04:58:37;;;;;;;1.57;1.30;;;;;13.00;100496.00;;;;10512489;28;20618;-77
2020/12/22 05:03:38;;;;;;;1.40;1.27;;;;;13.00;100490.00;;;;10511966;28;20600;-77
2020/12/22 05:08:40;;;;;;;1.50;1.17;;;;;13.10;100508.00;;;;10511201;28;20181;-77
2020/12/22 05:13:41;;;;;;;3.20;1.17;;;;;13.20;100502.00;;;;10527869;28;20205;-76
2020/12/22 05:18:43;;;;;;;2.70;1.20;;;;;13.20;100503.00;;;;10494533;28;20209;-77
2020/12/22 05:23:57;;;;;;;2.23;1.20;;;;;13.20;100506.00;;;;10538382;28;20215;-77
2020/12/22 05:29:13;;;;;;;0.80;0.80;;;;;13.20;100521.00;;;;10552352;28;20551;-77
2020/12/22 05:34:16;;;;;;;1.13;0.87;;;;;13.20;100515.00;;;;10548963;28;20196;-77
2020/12/22 05:39:18;;;;;;;1.37;0.70;;;;;13.20;100522.00;;;;10527527;28;20220;-77
2020/12/22 05:44:24;;;;;;;1.07;0.87;;;;;13.20;100528.00;;;;10509748;28;20567;-77
2020/12/22 05:49:25;;;;;;;1.33;0.83;;;;;13.20;100539.00;;;;10510276;28;20231;-77
2020/12/22 05:54:27;;;;;;;1.70;0.80;;;;;13.30;100548.00;;;;10509925;28;20236;-77
2020/12/22 05:59:28;;;;;;;2.90;1.10;;;;;13.30;100535.00;;;;10527124;28;20185;-77
2020/12/22 06:04:30;;;;;;;1.43;0.97;;;;;13.30;100547.00;;;;10527767;28;20200;-77
2020/12/22 06:09:31;;;;;;;1.80;0.80;;;;;13.30;100552.00;;;;10510579;28;20208;-77
2020/12/22 06:14:32;;;;;;;1.20;0.83;;;;;13.30;100571.00;;;;10526515;28;20205;-77
2020/12/22 06:19:36;;;;;;;2.03;0.83;;;;;13.30;100564.00;;;;10526039;28;20189;-77
2020/12/22 06:24:38;;;;;;;2.70;1.17;;;;;13.40;100587.00;;;;10525752;28;20261;-77
2020/12/22 06:29:42;;;;;;;2.97;0.90;;;;;13.40;100568.00;;;;10491969;28;20193;-76
2020/12/22 06:34:44;;;;;;;1.53;0.77;;;;;13.40;100587.00;;;;10525191;28;20197;-77
2020/12/22 06:39:47;;;;;;;2.07;0.80;;;;;13.40;100614.00;;;;10508316;28;20197;-77
2020/12/22 06:44:49;;;;;;;1.97;1.17;;;;;13.30;100612.00;;;;10490711;28;20263;-77
2020/12/22 06:49:54;;;;;;;1.50;1.17;;;;;13.20;100607.00;;;;10482490;28;20255;-76
2020/12/22 06:54:56;;;;;;;1.77;1.20;;;;;13.10;100620.00;;;;10498371;28;20904;-77
2020/12/22 06:59:58;;;;;;;1.33;1.20;;;;;13.00;100629.00;;;;10481910;28;20197;-77
2020/12/22 07:05:06;;;;;;;1.77;0.97;;;;;13.00;100632.00;;;;10505889;28;20189;-77
2020/12/22 07:10:10;;;;;;;2.20;0.80;;;;;13.00;100653.00;;;;10489874;28;20197;-76
2020/12/22 07:15:12;;;;;;;4.07;1.00;;;;;13.10;100657.00;;;;10489574;28;20636;-76
2020/12/22 07:20:14;;;;;;;3.87;1.07;;;;;13.10;100654.00;;;;10481374;28;20196;-76
2020/12/22 07:25:15;;;;;;;2.57;1.20;;;;;13.10;100663.00;;;;10488822;28;20189;-76
2020/12/22 07:30:18;;;;;;;0.80;0.80;;;;;13.10;100667.00;;;;10505739;28;20648;-76
2020/12/22 07:35:19;;;;;;;1.27;0.80;;;;;13.00;100676.00;;;;10540531;28;20563;-76
2020/12/22 07:40:28;;;;;;;1.57;0.80;;;;;12.90;100687.00;;;;10522010;28;20189;-76
2020/12/22 07:45:30;;;;;;;3.20;1.00;;;;;12.90;100693.00;;;;10521686;28;20269;-76
2020/12/22 07:50:31;;;;;;;2.93;0.90;;;;;12.90;100709.00;;;;10522390;28;20197;-76
2020/12/22 07:55:37;;;;;;;1.43;1.07;;;;;12.90;100715.00;;;;10504436;28;20240;-76
2020/12/22 08:00:39;;;;;;;2.60;1.07;;;;;12.90;100725.00;;;;10504330;28;20203;-76
2020/12/22 08:06:02;;;;;;;2.77;1.37;;;;;12.90;100728.00;;;;10521201;28;20255;-77
2020/12/22 08:11:06;;;;;;;1.67;1.40;;;;;12.80;100734.00;;;;10505276;28;20196;-76
2020/12/22 08:16:08;;;;;;;6.03;1.90;;;;;12.70;100744.00;;;;10470984;28;20214;-76
2020/12/22 08:21:10;;;;;;;2.03;1.40;;;;;12.70;100753.00;;;;10521506;28;20215;-76
2020/12/22 08:26:12;;;;;;;2.90;1.30;;;;;12.80;100766.00;;;;10521293;28;20231;-76
2020/12/22 08:31:15;;;;;;;3.53;1.13;;;;;12.80;100767.00;;;;10493274;28;20244;-76
2020/12/22 08:36:18;;;;;;;1.67;1.00;;;;;12.80;100787.00;;;;10462719;28;20209;-76
2020/12/22 08:41:23;;;;;;;3.17;1.40;;;;;12.90;100790.00;;;;10483428;28;20185;-76
2020/12/22 08:46:24;;;;;;;1.87;0.97;;;;;12.90;100789.00;;;;10503609;28;20259;-76
2020/12/22 08:51:26;;;;;;;4.70;1.10;;;;;13.10;100797.00;;;;10520492;28;20289;-76
2020/12/22 08:56:28;;;;;;;2.73;0.90;;;;;13.20;100794.00;;;;10520028;28;20237;-76
2020/12/22 09:01:38;;;;;;;2.10;0.90;;;;;13.50;100795.00;;;;10502719;28;20220;-76
2020/12/22 09:06:46;;;;;;;2.63;0.83;;;;;13.70;100797.00;;;;10502961;28;20230;-76
2020/12/22 09:11:48;;;;;;;2.53;0.70;;;;;13.80;100811.00;;;;10490695;28;20678;-76
2020/12/22 09:16:56;;;;;;;1.43;0.77;;;;;13.80;100817.00;;;;10528414;28;20209;-75
2020/12/22 09:21:59;;;;;;;2.73;0.87;;;;;13.70;100834.00;;;;10532392;28;20195;-76
2020/12/22 09:27:06;;;;;;;1.57;0.67;;;;;13.80;100838.00;;;;10479946;28;20274;-76
2020/12/22 09:32:10;;;;;;;2.87;0.70;;;;;13.70;100854.00;;;;10489248;28;20449;-76
2020/12/22 09:37:12;;;;;;;2.93;0.87;;;;;13.50;100867.00;;;;10526734;28;20204;-76
2020/12/22 09:42:14;;;;;;;2.93;0.77;;;;;13.30;100869.00;;;;10536684;28;20691;-76
2020/12/22 09:47:15;;;;;;;2.73;0.63;;;;;13.10;100880.00;;;;10521611;28;20254;-76
2020/12/22 09:52:17;;;;;;;3.03;0.97;;;;;12.80;100897.00;;;;10509210;28;20228;-76
2020/12/22 09:57:20;;;;;;;3.70;0.70;;;;;12.70;100895.00;;;;10524890;28;20236;-76
2020/12/22 10:02:22;;;;;;;1.30;0.60;;;;;12.60;100909.00;;;;10508240;28;20612;-76
2020/12/22 10:07:23;;;;;;;1.43;0.97;;;;;12.60;100914.00;;;;10512544;28;20224;-76
2020/12/22 10:12:24;;;;;;;5.77;1.17;;;;;12.60;100920.00;;;;10475194;28;20209;-76
2020/12/22 10:17:28;;;;;;;1.63;0.80;;;;;12.60;100927.00;;;;10488670;28;20258;-76
2020/12/22 10:22:30;;;;;;;2.00;0.90;;;;;12.90;100929.00;;;;10525332;28;20242;-76
2020/12/22 10:27:31;;;;;;;5.33;1.10;;;;;13.00;100927.00;;;;10505037;28;20204;-76
2020/12/22 10:32:32;;;;;;;4.00;0.90;;;;;12.80;100926.00;;;;10542417;28;20192;-76
2020/12/22 10:37:34;;;;;;;1.13;0.87;;;;;12.60;100924.00;;;;10514550;28;20275;-76
2020/12/22 10:42:35;;;;;;;4.73;1.70;;;;;12.60;100914.00;;;;10523029;28;20270;-76
2020/12/22 10:47:36;;;;;;;3.47;1.50;;;;;12.90;100924.00;;;;10506105;28;20260;-76
2020/12/22 10:52:38;;;;;;;3.40;1.10;;;;;13.00;100922.00;;;;10518772;28;20262;-76
2020/12/22 10:57:39;;;;;;;3.87;1.47;;;;;13.00;100934.00;;;;10519016;28;20205;-76
2020/12/22 11:02:40;;;;;;;5.63;1.50;;;;;12.90;100932.00;;;;10519302;28;20231;-76
2020/12/22 11:07:51;;;;;;;1.93;1.20;;;;;13.10;100922.00;;;;10493981;28;20195;-76
2020/12/22 11:12:52;;;;;;;2.00;1.20;;;;;13.20;100921.00;;;;10488974;28;20706;-76
2020/12/22 11:17:53;;;;;;;2.17;0.80;;;;;13.10;100926.00;;;;10489411;28;20236;-77
2020/12/22 11:22:55;;;;;;;1.87;0.90;;;;;12.80;100924.00;;;;10510323;28;20200;-76
2020/12/22 11:27:57;;;;;;;2.07;0.83;;;;;12.70;100926.00;;;;10539207;28;20196;-76
2020/12/22 11:32:58;;;;;;;4.90;1.20;;;;;13.10;100932.00;;;;10540354;28;20250;-76
2020/12/22 11:37:59;;;;;;;3.53;1.10;;;;;13.30;100933.00;;;;10496655;28;20221;-76
2020/12/22 11:43:03;;;;;;;4.40;1.53;;;;;14.10;100926.00;;;;10513266;28;20310;-77
2020/12/22 11:48:05;;;;;;;2.90;1.50;;;;;14.40;100912.00;;;;10536551;28;20204;-76
2020/12/22 11:53:06;;;;;;;3.47;1.30;;;;;14.70;100916.00;;;;10520326;28;20208;-76
2020/12/22 11:58:08;;;;;;;1.23;1.00;;;;;15.00;100895.00;;;;10497457;28;20205;-76
2020/12/22 12:03:09;;;;;;;2.00;1.00;;;;;15.10;100896.00;;;;10509555;28;20200;-76
2020/12/22 12:08:11;;;;;;;1.77;1.20;;;;;15.30;100886.00;;;;10515211;28;20227;-76
2020/12/22 12:13:12;;;;;;;3.93;1.43;;;;;15.20;100901.00;;;;10510558;28;20320;-76
2020/12/22 12:18:13;;;;;;;2.97;1.20;;;;;15.10;100908.00;;;;10546722;28;20253;-76
2020/12/22 12:23:15;;;;;;;2.30;1.23;;;;;15.10;100913.00;;;;10561025;28;20192;-76
2020/12/22 12:28:31;;;;;;;4.97;1.70;;;;;15.40;100920.00;;;;10496380;28;20203;-76
2020/12/22 12:59:12;;;;;;;4.63;1.70;;;;;14.30;100947.00;;;;10573595;27;20553;-75
2020/12/22 13:04:13;;;;;;;4.40;1.17;;;;;14.20;100938.00;;;;10564664;28;20188;-76
2020/12/22 13:09:19;;;;;;;3.70;1.30;;;;;14.10;100931.00;;;;10532117;28;20257;-75
2020/12/22 13:14:20;;;;;;;3.07;1.63;;;;;13.80;100934.00;;;;10527480;28;20200;-76
2020/12/22 13:19:22;;;;;;;4.63;1.70;;;;;13.60;100931.00;;;;10514279;28;20658;-76
2020/12/22 13:24:23;;;;;;;4.70;1.20;;;;;13.40;100938.00;;;;10543525;28;20588;-76
2020/12/22 13:29:29;;;;;;;3.83;1.30;;;;;13.30;100952.00;;;;10544743;28;20250;-76
2020/12/22 13:34:30;;;;;;;2.63;1.30;;;;;13.30;100943.00;;;;10510307;28;20193;-76
2020/12/22 13:39:51;;;;;;;3.87;1.70;;;;;13.50;100939.00;;;;10539124;28;20587;-76
2020/12/22 13:44:53;;;;;;;3.60;1.50;;;;;13.40;100934.00;;;;10502019;28;20217;-76
2020/12/22 13:49:54;;;;;;;5.33;1.67;;;;;13.50;100928.00;;;;10540971;28;20192;-76
2020/12/22 13:54:55;;;;;;;3.50;1.87;;;;;13.50;100942.00;;;;10526685;28;20265;-76
2020/12/22 13:59:57;;;;;;;5.47;2.53;;;;;13.40;100940.00;;;;10504199;28;20205;-76
2020/12/22 14:04:58;;;;;;;5.33;2.70;;;;;13.30;100938.00;;;;10533246;28;20181;-76
2020/12/22 14:09:59;;;;;;;8.77;3.43;;;;;13.20;100937.00;;;;10500666;28;20395;-77
2020/12/22 14:15:03;;;;;;;6.47;3.23;;;;;13.10;100938.00;;;;10480563;28;20205;-76
2020/12/22 14:20:05;;;;;;;7.70;3.77;;;;;12.90;100948.00;;;;10497667;28;20774;-76
2020/12/22 14:25:12;;;;;;;7.77;4.03;;;;;12.80;100953.00;;;;10446299;28;20185;-75
2020/12/22 14:30:13;;;;;;;6.77;3.67;;;;;12.70;100956.00;;;;10499205;28;20201;-75
2020/12/22 14:35:14;;;;;;;6.03;3.77;;;;;12.70;100963.00;;;;10464954;28;20217;-76
2020/12/22 14:40:16;;;;;;;6.90;4.47;;;;;12.60;100969.00;;;;10464861;28;20198;-76
2020/12/22 14:45:20;;;;;;;5.20;4.03;;;;;12.60;100964.00;;;;10498673;28;20906;-75
2020/12/22 14:50:21;;;;;;;9.87;5.00;;;;;12.60;100957.00;;;;10498298;28;20225;-75
2020/12/22 14:55:22;;;;;;;5.97;3.60;;;;;12.50;100966.00;;;;10447829;28;20244;-75
2020/12/22 15:00:24;;;;;;;5.90;4.30;;;;;12.50;100970.00;;;;10480793;28;20193;-75
2020/12/22 15:05:25;;;;;;;5.70;3.97;;;;;12.50;100969.00;;;;10428016;28;20195;-75
2020/12/22 15:10:26;;;;;;;6.67;4.30;;;;;12.50;100971.00;;;;10480490;28;20223;-75
2020/12/22 15:15:28;;;;;;;8.13;4.33;;;;;12.50;100966.00;;;;10497696;28;20577;-75
2020/12/22 15:20:29;;;;;;;7.80;3.67;;;;;12.50;100976.00;;;;10495955;28;20879;-75
2020/12/22 15:25:31;;;;;;;4.90;3.63;;;;;12.40;100979.00;;;;10496655;28;20232;-75
2020/12/22 15:30:32;;;;;;;3.60;3.20;;;;;12.40;100973.00;;;;10564129;28;20199;-75
2020/12/22 15:35:33;;;;;;;6.47;3.60;;;;;12.40;100972.00;;;;10563617;28;20754;-75
2020/12/22 15:40:35;;;;;;;7.37;3.20;;;;;12.30;100975.00;;;;10563422;28;20196;-75
2020/12/22 15:45:38;;;;;;;6.10;3.80;;;;;12.30;100972.00;;;;10564461;27;20593;-75
2020/12/22 15:50:39;;;;;;;6.83;3.33;;;;;12.20;100964.00;;;;10566913;28;20413;-75
2020/12/22 15:55:43;;;;;;;9.10;4.83;;;;;12.20;100974.00;;;;10546062;28;20212;-75
2020/12/22 16:00:47;;;;;;;10.37;4.30;;;;;12.10;100969.00;;;;10536223;28;20273;-75
2020/12/22 16:05:52;;;;;;;7.13;5.00;;;;;12.10;100983.00;;;;10528901;28;20173;-75
2020/12/22 16:10:54;;;;;;;13.53;9.03;;;;;12.10;100974.00;;;;10561337;28;20204;-75
2020/12/22 16:15:56;;;;;;;6.37;4.90;;;;;12.10;100964.00;;;;10520084;28;20219;-75
2020/12/22 16:21:12;;;;;;;9.13;5.37;;;;;12.20;100962.00;;;;10524362;28;20639;-75
2020/12/22 16:26:15;;;;;;;7.63;5.17;;;;;12.20;100960.00;;;;10562500;28;20224;-76
2020/12/22 16:31:17;;;;;;;6.67;5.00;;;;;12.30;100946.00;;;;10543704;28;20283;-76
2020/12/22 16:36:19;;;;;;;10.73;5.90;;;;;12.30;100937.00;;;;10544546;28;20599;-76
2020/12/22 16:41:21;;;;;;;8.37;5.47;;;;;12.30;100945.00;;;;10544133;27;20192;-76
2020/12/22 16:46:25;;;;;;;5.43;3.50;;;;;12.30;100940.00;;;;10542364;27;20199;-76
2020/12/22 16:51:28;;;;;;;9.20;3.90;;;;;12.20;100934.00;;;;10554082;27;20639;-76
2020/12/22 16:56:29;;;;;;;8.90;3.63;;;;;12.20;100939.00;;;;10486538;28;20679;-76
2020/12/22 17:01:31;;;;;;;7.43;3.23;;;;;12.20;100944.00;;;;10554741;28;20230;-76
2020/12/22 17:06:40;;;;;;;7.63;3.50;;;;;12.10;100961.00;;;;10611406;28;20703;-76
2020/12/22 17:11:42;;;;;;;7.57;3.60;;;;;12.10;100960.00;;;;10542996;28;20258;-76
2020/12/22 17:16:43;;;;;;;7.23;3.57;;;;;12.20;100961.00;;;;10554822;28;20196;-76
2020/12/22 17:21:45;;;;;;;9.10;3.30;;;;;12.20;100960.00;;;;10542153;28;20244;-76
2020/12/22 17:26:46;;;;;;;11.47;3.70;;;;;12.20;100955.00;;;;10548770;28;20188;-76
2020/12/22 17:31:47;;;;;;;11.73;3.83;;;;;12.20;100964.00;;;;10523593;28;20238;-76
2020/12/22 17:36:49;;;;;;;6.73;3.03;;;;;12.20;100961.00;;;;10533070;28;20683;-76
2020/12/22 17:41:50;;;;;;;8.80;3.47;;;;;12.20;100952.00;;;;10532492;27;20584;-76
2020/12/22 17:46:56;;;;;;;7.37;4.27;;;;;12.20;100948.00;;;;10563346;27;20575;-76
2020/12/22 17:51:59;;;;;;;10.83;3.70;;;;;12.10;100941.00;;;;10595620;27;20199;-76
2020/12/22 17:57:03;;;;;;;8.67;3.20;;;;;12.10;100940.00;;;;10589739;27;20211;-77
2020/12/22 18:02:04;;;;;;;5.87;2.27;;;;;12.00;100946.00;;;;10520774;28;20654;-76
2020/12/22 18:07:06;;;;;;;9.93;2.80;;;;;12.00;100964.00;;;;10554990;27;20328;-76
2020/12/22 18:12:08;;;;;;;9.93;2.80;;;;;12.00;100957.00;;;;10535430;28;20219;-76
2020/12/22 18:17:10;;;;;;;10.73;2.57;;;;;12.00;100964.00;;;;10535865;28;20212;-76
2020/12/22 18:22:11;;;;;;;12.10;4.00;;;;;11.90;100977.00;;;;10566807;28;20268;-76
2020/12/22 18:27:12;;;;;;;11.97;3.90;;;;;11.90;100972.00;;;;10547080;27;20811;-76
2020/12/22 18:32:14;;;;;;;7.70;3.80;;;;;11.90;100979.00;;;;10548389;28;20196;-76
2020/12/22 18:37:16;;;;;;;11.03;3.40;;;;;12.00;100967.00;;;;10584549;28;20204;-76
2020/12/22 18:42:18;;;;;;;10.90;4.57;;;;;12.00;100961.00;;;;10514964;28;20220;-76
2020/12/22 18:47:20;;;;;;;7.43;4.50;;;;;11.90;100947.00;;;;10583098;28;20195;-76
2020/12/22 18:52:21;;;;;;;8.33;4.10;;;;;11.90;100937.00;;;;10564830;28;20188;-77
2020/12/22 18:57:23;;;;;;;17.70;4.90;;;;;11.80;100935.00;;;;10567349;28;20208;-77
2020/12/22 19:02:34;;;;;;;14.63;4.40;;;;;11.80;100941.00;;;;10544313;27;20202;-76
2020/12/22 19:07:36;;;;;;;10.00;4.50;;;;;11.80;100948.00;;;;10532010;28;20188;-76
2020/12/22 19:12:40;;;;;;;6.47;4.43;;;;;11.80;100945.00;;;;10565116;28;20229;-76
2020/12/22 19:17:41;;;;;;;13.10;5.43;;;;;11.70;100947.00;;;;10514576;28;20575;-76
2020/12/22 19:22:43;;;;;;;11.37;5.63;;;;;11.70;100932.00;;;;10547463;28;20192;-76
2020/12/22 19:27:44;;;;;;;15.57;7.17;;;;;11.70;100939.00;;;;10547264;28;20188;-76
2020/12/22 19:32:50;;;;;;;13.67;6.87;;;;;11.70;100939.00;;;;10547190;28;20195;-76
2020/12/22 19:37:53;;;;;;;18.30;8.03;;;;;11.70;100925.00;;;;10546966;28;20216;-76
2020/12/22 19:42:54;;;;;;;21.93;8.90;;;;;11.70;100933.00;;;;10565828;27;20226;-76
2020/12/22 19:47:56;;;;;;;16.57;9.93;;;;;11.70;100916.00;;;;10606292;27;20191;-76
2020/12/22 19:52:58;;;;;;;24.03;10.83;;;;;11.70;100919.00;;;;10588455;27;20193;-76
2020/12/22 19:57:59;;;;;;;23.53;10.13;;;;;11.80;100923.00;;;;10588736;27;20219;-76
2020/12/22 20:03:08;;;;;;;23.60;9.83;;;;;11.80;100933.00;;;;10563500;28;20582;-77
2020/12/22 20:08:09;;;;;;;20.83;10.33;;;;;11.80;100926.00;;;;10522197;28;20525;-76
2020/12/22 20:13:11;;;;;;;26.23;11.50;;;;;11.80;100917.00;;;;10550142;28;20260;-76
2020/12/22 20:18:12;;;;;;;25.43;10.93;;;;;11.80;100922.00;;;;10564303;27;20264;-76
2020/12/22 20:23:13;;;;;;;24.73;11.90;;;;;11.80;100923.00;;;;10539015;28;20682;-76
2020/12/22 20:28:14;;;;;;;28.70;12.17;;;;;11.80;100928.00;;;;10524776;28;20192;-76
2020/12/22 20:33:30;;;;;;;32.70;14.00;;;;;11.80;100914.00;;;;10529048;28;20192;-76
2020/12/22 20:38:32;;;;;;;27.10;13.33;;;;;11.80;100917.00;;;;10547147;27;20250;-75
2020/12/22 20:43:34;;;;;;;32.10;14.70;;;;;11.80;100899.00;;;;10569695;27;20279;-76
2020/12/22 20:48:35;;;;;;;33.00;15.10;;;;;11.80;100923.00;;;;10567045;27;20333;-75
2020/12/22 20:53:37;;;;;;;31.53;15.80;;;;;11.80;100932.00;;;;10510765;28;20199;-76
2020/12/22 20:58:39;;;;;;;25.90;14.50;;;;;11.80;100925.00;;;;10559568;28;20211;-75
2020/12/22 21:03:46;;;;;;;32.43;15.73;;;;;11.80;100931.00;;;;10520217;28;20188;-75
2020/12/22 21:08:48;;;;;;;25.50;14.43;;;;;11.80;100935.00;;;;10540336;28;20241;-77
2020/12/22 21:13:49;;;;;;;23.80;15.03;;;;;11.80;100940.00;;;;10564980;28;20221;-76
2020/12/22 21:18:51;;;;;;;18.80;12.67;;;;;11.80;100928.00;;;;10556263;27;20233;-75
2020/12/22 21:23:52;;;;;;;16.67;11.57;;;;;11.80;100939.00;;;;10551441;28;20214;-76
2020/12/22 21:28:54;;;;;;;18.23;12.57;;;;;11.80;100930.00;;;;10533804;28;20188;-76
2020/12/22 21:34:05;;;;;;;19.87;11.63;;;;;11.90;100922.00;;;;10540623;27;20282;-76
2020/12/22 21:39:07;;;;;;;18.27;10.70;;;;;11.80;100916.00;;;;10535065;28;20212;-76
2020/12/22 21:44:08;;;;;;;18.07;10.67;;;;;11.90;100920.00;;;;10551083;28;20208;-76
2020/12/22 21:49:10;;;;;;;14.87;10.20;;;;;11.90;100918.00;;;;10538711;27;20185;-76
2020/12/22 21:54:11;;;;;;;17.03;10.20;;;;;11.90;100934.00;;;;10570748;28;20200;-76
2020/12/22 21:59:13;;;;;;;18.03;10.63;;;;;11.90;100930.00;;;;10563993;27;20544;-76
2020/12/22 22:04:25;;;;;;;15.57;10.03;;;;;11.90;100922.00;;;;10554735;28;20199;-76
2020/12/22 22:09:26;;;;;;;17.50;11.17;;;;;11.90;100919.00;;;;10519860;28;20224;-76
2020/12/22 22:14:27;;;;;;;20.10;12.33;;;;;11.90;100932.00;;;;10546092;27;20256;-76
2020/12/22 22:19:29;;;;;;;14.57;11.30;;;;;11.90;100939.00;;;;10571275;27;20234;-76
2020/12/22 22:24:30;;;;;;;18.13;11.70;;;;;11.90;100944.00;;;;10550925;27;20275;-76
2020/12/22 22:29:31;;;;;;;16.67;11.43;;;;;11.80;100952.00;;;;10529732;27;20195;-76
2020/12/22 22:34:43;;;;;;;17.03;10.27;;;;;11.80;100950.00;;;;10591942;27;20188;-76
2020/12/22 22:39:44;;;;;;;11.47;9.33;;;;;11.80;100956.00;;;;10526873;28;20204;-76
2020/12/22 22:44:49;;;;;;;14.83;9.60;;;;;11.80;100961.00;;;;10534942;28;20223;-76
2020/12/22 22:49:50;;;;;;;14.60;9.20;;;;;11.80;100952.00;;;;10569586;27;20264;-76
2020/12/22 22:54:51;;;;;;;12.40;7.50;;;;;11.80;100947.00;;;;10555836;28;20663;-77
2020/12/22 22:59:53;;;;;;;11.40;7.83;;;;;11.80;100954.00;;;;10547558;28;20208;-77
2020/12/22 23:05:02;;;;;;;13.80;7.80;;;;;11.80;100957.00;;;;10532819;28;20211;-77
2020/12/22 23:10:04;;;;;;;13.50;6.80;;;;;11.80;100947.00;;;;10575904;27;20189;-77
2020/12/22 23:15:07;;;;;;;11.30;7.10;;;;;11.80;100949.00;;;;10551095;27;20261;-76
2020/12/22 23:20:09;;;;;;;13.47;7.50;;;;;11.80;100918.00;;;;10569772;27;20191;-76
2020/12/22 23:25:11;;;;;;;15.33;7.50;;;;;11.80;100914.00;;;;10562774;27;20334;-77
2020/12/22 23:30:13;;;;;;;10.17;7.27;;;;;11.80;100915.00;;;;10516554;28;20185;-77
2020/12/22 23:35:29;;;;;;;13.33;7.97;;;;;11.80;100907.00;;;;10555999;27;20204;-77
2020/12/22 23:40:31;;;;;;;13.13;8.13;;;;;11.80;100912.00;;;;10536864;28;20265;-77
2020/12/22 23:45:32;;;;;;;12.00;7.47;;;;;11.80;100907.00;;;;10528956;28;20682;-77
2020/12/22 23:50:34;;;;;;;14.77;8.33;;;;;11.80;100902.00;;;;10547035;28;20195;-77
2020/12/22 23:55:35;;;;;;;12.17;8.47;;;;;11.80;100897.00;;;;10547288;28;20228;-76
